Time;durP1;ratioP1;P1;durP2;ratioP2;P2;SDS_P1;SDS_P2;PMS_P1;PMS_P2;Temp;Humidity;BMP_temperature;BMP_pressure;BME280_temperature;BME280_humidity;BME280_pressure;Samples;Min_cycle;Max_cycle;Signal;HPM_P1;HPM_P2
2021/10/31 00:02:18;;;;;;;;;88.50;86.00;12.70;50.50;;;;;;5014447;28;8761;-70
2021/10/31 00:04:44;;;;;;;;;90.50;81.50;12.40;51.20;;;;;;5014397;28;8780;-70
2021/10/31 00:07:10;;;;;;;;;91.75;87.75;12.10;51.80;;;;;;5014005;28;9694;-70
2021/10/31 00:09:36;;;;;;;;;84.00;77.75;12.10;51.50;;;;;;5014363;28;9461;-69
2021/10/31 00:12:03;;;;;;;;;91.75;88.75;12.10;51.60;;;;;;5014062;28;8788;-72
2021/10/31 00:14:29;;;;;;;;;106.25;99.75;12.10;51.70;;;;;;5014135;28;8815;-71
2021/10/31 00:16:58;;;;;;;;;95.75;94.50;12.20;51.20;;;;;;5018994;28;8782;-71
2021/10/31 00:19:28;;;;;;;;;98.75;97.75;12.20;51.50;;;;;;5037695;28;8770;-70
2021/10/31 00:21:54;;;;;;;;;111.00;110.00;12.40;51.00;;;;;;5037515;28;8755;-70
2021/10/31 00:24:20;;;;;;;;;106.50;105.00;12.30;51.30;;;;;;5037419;28;9434;-71
2021/10/31 00:26:46;;;;;;;;;132.00;122.50;12.10;51.80;;;;;;5037329;28;8763;-72
2021/10/31 00:29:12;;;;;;;;;127.25;121.75;11.70;52.90;;;;;;5037332;28;8881;-70
2021/10/31 00:31:38;;;;;;;;;131.00;124.00;11.90;51.90;;;;;;5037357;28;8806;-71
2021/10/31 00:34:04;;;;;;;;;121.50;116.50;11.90;53.30;;;;;;5037223;28;8770;-71
2021/10/31 00:36:31;;;;;;;;;127.50;122.25;12.00;52.20;;;;;;5037264;28;8774;-70
2021/10/31 00:38:57;;;;;;;;;135.00;125.75;12.10;52.00;;;;;;5037398;28;8766;-72
2021/10/31 00:41:23;;;;;;;;;128.00;122.25;12.10;52.10;;;;;;5036998;28;8770;-71
2021/10/31 00:43:49;;;;;;;;;139.00;131.25;11.80;52.60;;;;;;5037128;28;8825;-71
2021/10/31 00:46:15;;;;;;;;;128.25;120.75;11.70;52.70;;;;;;5037274;28;8762;-71
2021/10/31 00:48:41;;;;;;;;;125.75;123.50;11.90;52.40;;;;;;5037278;28;8763;-69
2021/10/31 00:51:07;;;;;;;;;114.25;108.00;11.70;52.90;;;;;;5037138;28;8880;-70
2021/10/31 00:53:34;;;;;;;;;122.25;118.25;11.70;52.90;;;;;;5036851;28;8778;-69
2021/10/31 00:56:01;;;;;;;;;119.25;117.50;11.70;52.80;;;;;;5036145;28;8785;-72
2021/10/31 00:58:26;;;;;;;;;106.75;104.00;11.30;54.10;;;;;;5036455;28;8763;-71
2021/10/31 01:00:52;;;;;;;;;132.00;128.75;10.80;55.60;;;;;;5037224;28;8818;-71
2021/10/31 01:03:18;;;;;;;;;137.75;131.75;11.00;55.50;;;;;;5036674;28;8762;-71
2021/10/31 01:05:48;;;;;;;;;155.75;150.50;11.20;55.00;;;;;;5037030;28;8759;-71
2021/10/31 01:08:32;;;;;;;;;169.75;164.25;11.40;53.30;;;;;;5036942;28;8852;-70
2021/10/31 01:11:26;;;;;;;;;171.00;164.50;11.40;53.10;;;;;;5036785;28;9509;-71
2021/10/31 01:14:13;;;;;;;;;201.25;188.75;11.40;52.90;;;;;;5036510;28;8783;-70
2021/10/31 01:17:01;;;;;;;;;188.75;176.00;11.40;52.50;;;;;;5036714;28;8778;-72
2021/10/31 01:19:52;;;;;;;;;188.00;174.00;11.20;52.80;;;;;;5037080;28;8851;-69
2021/10/31 01:22:37;;;;;;;;;149.50;142.75;11.30;52.40;;;;;;5036207;28;8769;-70
2021/10/31 01:25:41;;;;;;;;;117.25;116.75;11.20;52.40;;;;;;5036095;28;8815;-70
2021/10/31 01:28:34;;;;;;;;;114.50;109.25;11.20;52.70;;;;;;4994627;28;8832;-70
2021/10/31 01:31:36;;;;;;;;;119.50;114.50;10.60;54.00;;;;;;4994368;28;8847;-70
2021/10/31 01:34:21;;;;;;;;;109.75;107.25;10.50;55.20;;;;;;4994498;28;8797;-71
2021/10/31 01:37:09;;;;;;;;;116.75;109.25;10.60;54.60;;;;;;4994623;28;8775;-69
2021/10/31 01:39:40;;;;;;;;;118.50;114.25;10.60;54.90;;;;;;4994453;28;8813;-69
2021/10/31 01:42:18;;;;;;;;;118.50;113.50;10.70;54.30;;;;;;4994422;28;8862;-70
2021/10/31 01:45:19;;;;;;;;;105.00;104.50;10.60;54.80;;;;;;4994313;28;8782;-71
2021/10/31 01:47:55;;;;;;;;;127.75;120.25;10.20;55.80;;;;;;4994351;28;8885;-71
2021/10/31 01:50:39;;;;;;;;;128.00;124.50;10.10;56.20;;;;;;4994258;28;8806;-71
2021/10/31 01:53:32;;;;;;;;;133.25;124.50;10.20;56.10;;;;;;4993124;28;8791;-72
2021/10/31 01:56:08;;;;;;;;;146.75;141.75;10.40;55.50;;;;;;4994168;28;8791;-70
2021/10/31 01:58:38;;;;;;;;;163.50;154.25;10.50;55.10;;;;;;4992473;28;8778;-70
2021/10/31 02:01:06;;;;;;;;;115.50;108.50;10.40;55.50;;;;;;4995806;28;8824;-71
2021/10/31 02:03:36;;;;;;;;;148.75;144.75;10.30;56.00;;;;;;5015973;28;8756;-72
2021/10/31 02:06:02;;;;;;;;;117.75;113.50;10.40;55.60;;;;;;5016028;28;8768;-69
2021/10/31 02:08:28;;;;;;;;;145.25;136.75;10.20;56.10;;;;;;5015888;28;8807;-70
2021/10/31 02:10:57;;;;;;;;;115.00;111.50;10.20;56.60;;;;;;5015636;28;8795;-70
2021/10/31 02:13:25;;;;;;;;;127.50;121.25;10.10;57.10;;;;;;5015514;28;8850;-71
2021/10/31 02:15:53;;;;;;;;;136.00;126.25;10.00;57.60;;;;;;5015606;28;8764;-70
2021/10/31 02:18:21;;;;;;;;;115.50;114.00;10.10;57.10;;;;;;5015568;28;8800;-70
2021/10/31 02:20:51;;;;;;;;;113.00;105.00;10.40;56.30;;;;;;5015458;28;8776;-69
2021/10/31 02:23:17;;;;;;;;;115.75;113.25;10.80;55.40;;;;;;5015527;28;8752;-69
2021/10/31 02:25:43;;;;;;;;;139.75;134.00;10.50;55.90;;;;;;5015730;28;8773;-68
2021/10/31 02:28:09;;;;;;;;;147.75;139.25;10.00;57.20;;;;;;5015351;28;8798;-68
2021/10/31 02:30:35;;;;;;;;;154.75;145.00;10.10;56.60;;;;;;5015128;28;8836;-69
2021/10/31 02:33:01;;;;;;;;;154.50;149.50;9.90;58.00;;;;;;5015224;28;8772;-71
2021/10/31 02:35:27;;;;;;;;;152.25;149.25;9.70;58.10;;;;;;5015284;28;8873;-69
2021/10/31 02:37:53;;;;;;;;;138.25;136.25;9.80;58.00;;;;;;5015235;28;9502;-69
2021/10/31 02:40:22;;;;;;;;;154.25;148.75;10.00;57.60;;;;;;5014698;28;8800;-69
2021/10/31 02:42:49;;;;;;;;;123.25;122.25;10.30;56.30;;;;;;5015374;28;9483;-69
2021/10/31 02:45:15;;;;;;;;;145.25;135.00;10.30;56.30;;;;;;5014960;28;8776;-70
2021/10/31 02:47:54;;;;;;;;;143.00;143.00;10.20;56.40;;;;;;5015081;28;8764;-71
2021/10/31 02:50:25;;;;;;;;;151.00;144.25;9.70;58.10;;;;;;5015143;28;8823;-68
2021/10/31 02:53:18;;;;;;;;;155.00;144.50;9.70;58.00;;;;;;5014945;28;8768;-70
2021/10/31 02:56:08;;;;;;;;;153.25;146.25;9.90;57.40;;;;;;5015107;28;8757;-69
2021/10/31 02:58:44;;;;;;;;;160.25;149.00;10.20;56.60;;;;;;5014942;28;8752;-70
2021/10/31 03:01:11;;;;;;;;;166.75;154.25;10.20;56.20;;;;;;5015241;28;8804;-70
2021/10/31 03:03:38;;;;;;;;;146.75;144.75;10.00;56.10;;;;;;5014706;28;8773;-69
2021/10/31 03:06:04;;;;;;;;;165.25;158.00;10.10;56.10;;;;;;5014819;28;8850;-70
2021/10/31 03:08:31;;;;;;;;;158.75;153.25;9.80;55.70;;;;;;5014658;28;8784;-68
2021/10/31 03:10:59;;;;;;;;;147.00;141.00;9.60;55.60;;;;;;5029893;28;8861;-69
2021/10/31 03:13:27;;;;;;;;;127.00;124.00;9.60;55.90;;;;;;5014818;28;8768;-70
2021/10/31 03:15:54;;;;;;;;;109.75;107.75;9.40;56.90;;;;;;5014683;28;8787;-69
2021/10/31 03:18:20;;;;;;;;;110.00;108.25;9.50;56.70;;;;;;5014629;28;8769;-70
2021/10/31 03:20:46;;;;;;;;;93.50;87.25;9.20;57.40;;;;;;5014785;28;8815;-69
2021/10/31 03:23:13;;;;;;;;;95.50;88.00;9.10;57.90;;;;;;5014807;28;9655;-69
2021/10/31 03:25:39;;;;;;;;;87.00;76.25;9.10;57.40;;;;;;5014477;28;9481;-69
2021/10/31 03:28:05;;;;;;;;;89.50;77.75;9.20;58.00;;;;;;4997171;28;8781;-70
2021/10/31 03:30:32;;;;;;;;;83.25;71.00;9.40;57.20;;;;;;5014156;28;8843;-68
2021/10/31 03:32:58;;;;;;;;;86.50;73.00;9.40;57.20;;;;;;5014620;28;8859;-70
2021/10/31 03:35:25;;;;;;;;;77.75;64.50;9.40;57.30;;;;;;5014426;28;8764;-70
2021/10/31 03:37:51;;;;;;;;;87.50;75.25;9.60;56.60;;;;;;5014627;28;8765;-70
2021/10/31 03:40:17;;;;;;;;;81.00;66.00;9.50;56.20;;;;;;5014726;28;8776;-69
2021/10/31 03:42:43;;;;;;;;;82.00;68.50;9.60;55.90;;;;;;5014368;28;8783;-69
2021/10/31 03:45:11;;;;;;;;;77.00;62.00;9.40;57.20;;;;;;5014318;28;8890;-69
2021/10/31 03:47:42;;;;;;;;;79.50;65.25;9.40;56.20;;;;;;5014284;28;8791;-70
2021/10/31 03:50:08;;;;;;;;;79.75;64.75;9.40;56.50;;;;;;5014653;28;9457;-70
2021/10/31 03:52:34;;;;;;;;;77.75;63.75;9.40;56.50;;;;;;5017283;28;8775;-69
2021/10/31 03:55:00;;;;;;;;;77.50;63.00;9.40;56.60;;;;;;5018128;28;8777;-71
2021/10/31 03:57:26;;;;;;;;;76.25;61.75;9.30;57.00;;;;;;5018252;28;8776;-71
2021/10/31 03:59:52;;;;;;;;;81.00;66.75;9.50;56.00;;;;;;5018237;28;8832;-70
2021/10/31 04:02:18;;;;;;;;;83.00;67.50;9.30;56.40;;;;;;5018069;28;8773;-70
2021/10/31 04:04:44;;;;;;;;;79.25;64.25;8.80;57.80;;;;;;5018158;28;8796;-71
2021/10/31 04:07:10;;;;;;;;;81.00;65.50;8.70;58.70;;;;;;5018321;28;8768;-70
2021/10/31 04:09:36;;;;;;;;;86.75;74.25;8.80;58.30;;;;;;5000470;28;9469;-70
2021/10/31 04:12:03;;;;;;;;;79.00;64.50;8.90;58.10;;;;;;5017787;28;8760;-70
2021/10/31 04:14:28;;;;;;;;;80.25;65.50;8.70;59.30;;;;;;5017903;28;8761;-70
2021/10/31 04:16:54;;;;;;;;;82.50;67.25;8.60;59.60;;;;;;5017783;28;8784;-70
2021/10/31 04:19:20;;;;;;;;;85.25;72.00;8.80;58.50;;;;;;5017783;28;8791;-70
2021/10/31 04:21:46;;;;;;;;;83.00;70.00;8.90;57.90;;;;;;5017692;28;8780;-70
2021/10/31 04:24:12;;;;;;;;;85.00;70.50;9.00;57.70;;;;;;5017663;28;8777;-70
2021/10/31 04:26:38;;;;;;;;;88.50;72.50;8.50;59.20;;;;;;5033245;28;8769;-71
2021/10/31 04:29:04;;;;;;;;;87.75;75.25;8.60;59.30;;;;;;5017320;28;8784;-71
2021/10/31 04:31:30;;;;;;;;;85.00;71.50;8.50;59.20;;;;;;5017329;28;8828;-70
2021/10/31 04:33:56;;;;;;;;;86.00;71.50;8.60;59.20;;;;;;5017614;28;8799;-70
2021/10/31 04:36:21;;;;;;;;;88.25;76.25;8.70;58.80;;;;;;5017548;28;8787;-71
2021/10/31 04:38:53;;;;;;;;;84.25;70.00;8.60;59.20;;;;;;5017415;28;8850;-71
2021/10/31 04:41:19;;;;;;;;;88.00;77.25;8.80;58.80;;;;;;5017675;28;8811;-70
2021/10/31 04:43:44;;;;;;;;;78.50;64.50;9.00;57.40;;;;;;5017275;28;8792;-69
2021/10/31 04:46:10;;;;;;;;;88.25;75.50;8.90;57.60;;;;;;5017295;28;8784;-71
2021/10/31 04:48:36;;;;;;;;;95.50;84.25;8.70;58.10;;;;;;5017540;28;8777;-70
2021/10/31 04:51:02;;;;;;;;;92.50;84.00;8.60;58.60;;;;;;5017352;28;8831;-70
2021/10/31 04:53:28;;;;;;;;;111.75;106.50;8.30;60.10;;;;;;5017145;28;9434;-70
2021/10/31 04:55:54;;;;;;;;;121.00;117.00;8.30;60.20;;;;;;5017639;28;8780;-70
2021/10/31 04:58:20;;;;;;;;;100.75;96.00;8.30;60.30;;;;;;5017802;28;8780;-71
2021/10/31 05:00:45;;;;;;;;;100.00;99.25;8.60;59.40;;;;;;5017900;28;8812;-71
2021/10/31 05:03:11;;;;;;;;;123.00;119.25;8.70;59.10;;;;;;5016779;28;8850;-71
2021/10/31 05:05:37;;;;;;;;;154.25;147.75;8.40;60.80;;;;;;5016963;28;9398;-70
2021/10/31 05:08:04;;;;;;;;;126.50;123.00;7.90;62.40;;;;;;5017219;28;8781;-71
2021/10/31 05:10:29;;;;;;;;;118.25;115.00;8.00;62.50;;;;;;5017140;28;9656;-71
2021/10/31 05:12:56;;;;;;;;;135.25;128.25;8.20;61.90;;;;;;5016708;28;8765;-70
2021/10/31 05:15:22;;;;;;;;;201.75;193.25;8.10;61.60;;;;;;5016959;28;8788;-72
2021/10/31 05:17:49;;;;;;;;;139.50;134.75;7.70;63.20;;;;;;5016651;28;8842;-70
2021/10/31 05:20:15;;;;;;;;;129.75;125.50;7.30;65.20;;;;;;5016765;28;8769;-71
2021/10/31 05:22:41;;;;;;;;;132.50;128.00;7.30;65.50;;;;;;5016685;28;8891;-70
2021/10/31 05:25:09;;;;;;;;;135.00;130.00;7.70;63.80;;;;;;5016571;28;8997;-70
2021/10/31 05:27:36;;;;;;;;;131.25;129.25;7.50;64.30;;;;;;5016570;28;8791;-70
2021/10/31 05:30:08;;;;;;;;;130.00;122.50;7.50;64.30;;;;;;5016157;28;9624;-71
2021/10/31 05:32:36;;;;;;;;;144.25;135.75;7.90;64.00;;;;;;5016401;28;8791;-71
2021/10/31 05:35:04;;;;;;;;;134.75;132.25;7.60;63.60;;;;;;5016504;28;8773;-72
2021/10/31 05:37:34;;;;;;;;;139.50;136.25;7.60;64.00;;;;;;5016332;28;8785;-71
2021/10/31 05:40:03;;;;;;;;;136.25;130.75;7.60;63.90;;;;;;5016569;28;8768;-71
2021/10/31 05:42:29;;;;;;;;;140.00;133.25;7.90;63.20;;;;;;5016115;28;8817;-72
2021/10/31 05:44:55;;;;;;;;;136.25;131.50;8.30;61.80;;;;;;5016157;28;8776;-71
2021/10/31 05:47:21;;;;;;;;;143.25;137.75;8.20;61.70;;;;;;5016105;28;8791;-71
2021/10/31 05:49:47;;;;;;;;;149.25;144.25;8.10;61.90;;;;;;5016258;28;8812;-69
2021/10/31 05:52:13;;;;;;;;;143.50;143.00;8.00;62.30;;;;;;5015972;28;8760;-70
2021/10/31 05:54:39;;;;;;;;;163.50;152.50;7.70;62.90;;;;;;5015855;28;8846;-72
2021/10/31 05:57:05;;;;;;;;;195.75;187.25;7.70;62.70;;;;;;5016151;28;8772;-70
2021/10/31 05:59:31;;;;;;;;;215.50;205.75;7.80;62.40;;;;;;5016109;28;9473;-70
2021/10/31 06:01:56;;;;;;;;;210.00;195.75;7.90;62.10;;;;;;5016026;28;8884;-72
2021/10/31 06:04:25;;;;;;;;;208.75;196.25;7.80;62.80;;;;;;5015781;28;8765;-70
2021/10/31 06:06:51;;;;;;;;;207.50;195.50;7.80;62.20;;;;;;5015819;28;8769;-72
2021/10/31 06:09:17;;;;;;;;;208.00;198.00;7.90;62.00;;;;;;5015447;28;8768;-71
2021/10/31 06:11:43;;;;;;;;;189.75;186.00;8.30;61.10;;;;;;5015410;28;8850;-70
2021/10/31 06:14:11;;;;;;;;;198.25;190.25;8.40;61.60;;;;;;5014762;28;8915;-72
2021/10/31 06:16:37;;;;;;;;;183.00;175.75;8.40;61.10;;;;;;5015788;28;8803;-71
2021/10/31 06:19:04;;;;;;;;;183.25;175.75;8.50;60.80;;;;;;5015647;28;8776;-70
2021/10/31 06:21:30;;;;;;;;;206.00;194.00;8.30;61.50;;;;;;5015780;28;9499;-69
2021/10/31 06:23:56;;;;;;;;;216.25;201.00;7.90;62.90;;;;;;5015400;28;8781;-70
2021/10/31 06:26:22;;;;;;;;;211.75;201.25;7.70;63.80;;;;;;5015614;28;8765;-71
2021/10/31 06:28:48;;;;;;;;;221.75;208.50;7.80;64.10;;;;;;5015372;28;9647;-69
2021/10/31 06:31:14;;;;;;;;;197.00;189.25;8.00;63.20;;;;;;5015225;28;8816;-69
2021/10/31 06:33:40;;;;;;;;;202.25;195.75;8.00;63.90;;;;;;5015151;28;8757;-69
2021/10/31 06:36:06;;;;;;;;;215.00;208.75;7.80;65.20;;;;;;5015343;28;8874;-69
2021/10/31 06:38:32;;;;;;;;;226.50;208.00;7.70;65.40;;;;;;5015059;28;8769;-70
2021/10/31 06:40:58;;;;;;;;;189.25;184.00;8.00;64.80;;;;;;5015373;28;8922;-65
2021/10/31 06:43:24;;;;;;;;;206.75;200.75;8.40;63.60;;;;;;5015151;28;8776;-61
2021/10/31 06:45:50;;;;;;;;;216.75;208.00;8.70;62.60;;;;;;5014825;28;8783;-64
2021/10/31 06:48:16;;;;;;;;;217.25;211.75;8.80;62.40;;;;;;5015184;28;9425;-67
2021/10/31 06:50:42;;;;;;;;;237.75;217.25;8.50;63.40;;;;;;5013174;28;8816;-67
2021/10/31 06:53:08;;;;;;;;;251.50;236.25;8.10;64.90;;;;;;5032013;28;8782;-69
2021/10/31 06:55:34;;;;;;;;;244.00;231.00;8.30;65.00;;;;;;5033484;28;9416;-62
2021/10/31 06:58:00;;;;;;;;;228.25;217.50;8.80;63.40;;;;;;5033439;28;8771;-67
2021/10/31 07:00:27;;;;;;;;;206.00;198.00;9.30;61.50;;;;;;5033068;28;8925;-63
2021/10/31 07:02:53;;;;;;;;;207.00;200.00;9.60;60.40;;;;;;5030039;28;8775;-63
2021/10/31 07:05:19;;;;;;;;;191.25;185.50;10.00;58.90;;;;;;5031696;28;9479;-65
2021/10/31 07:07:45;;;;;;;;;178.75;172.00;10.20;58.20;;;;;;5033345;28;8763;-67
2021/10/31 07:10:14;;;;;;;;;161.50;152.75;10.40;57.70;;;;;;5033689;28;8833;-59
2021/10/31 07:12:41;;;;;;;;;140.75;136.00;10.30;58.60;;;;;;5028636;28;8830;-60
2021/10/31 07:15:07;;;;;;;;;130.25;128.25;9.70;60.80;;;;;;5005368;28;8812;-61
2021/10/31 07:17:33;;;;;;;;;136.50;128.75;9.80;61.20;;;;;;5025651;28;8866;-61
2021/10/31 07:19:59;;;;;;;;;119.00;115.00;10.30;59.70;;;;;;5014637;28;9437;-59
2021/10/31 07:22:25;;;;;;;;;108.00;106.25;10.00;60.30;;;;;;5023061;28;8775;-67
2021/10/31 07:24:51;;;;;;;;;109.50;104.50;9.90;61.10;;;;;;4929276;28;8886;-67
2021/10/31 07:27:17;;;;;;;;;92.75;89.75;10.10;60.70;;;;;;5047705;28;8796;-65
2021/10/31 07:29:43;;;;;;;;;89.25;85.00;10.20;60.50;;;;;;5024836;28;8839;-62
2021/10/31 07:32:09;;;;;;;;;92.25;87.00;10.20;61.20;;;;;;5034041;28;8820;-66
2021/10/31 07:34:35;;;;;;;;;87.50;80.00;10.40;60.20;;;;;;5034266;28;8787;-68
2021/10/31 07:37:01;;;;;;;;;94.50;93.00;10.60;59.70;;;;;;5032360;28;8810;-67
2021/10/31 07:39:29;;;;;;;;;90.50;85.25;10.60;60.00;;;;;;5028196;28;8779;-65
2021/10/31 07:41:56;;;;;;;;;90.50;86.75;10.60;59.90;;;;;;5024934;28;8930;-63
2021/10/31 07:44:21;;;;;;;;;90.00;83.75;10.60;60.40;;;;;;5022262;28;8770;-65
2021/10/31 07:46:47;;;;;;;;;98.25;96.75;10.80;59.80;;;;;;5034334;28;8793;-66
2021/10/31 07:49:13;;;;;;;;;91.25;90.25;10.60;60.80;;;;;;5028056;28;8778;-67
2021/10/31 07:51:39;;;;;;;;;87.50;82.75;10.50;61.60;;;;;;5025063;28;8826;-65
2021/10/31 07:54:05;;;;;;;;;86.00;80.25;10.30;62.50;;;;;;5014242;28;9474;-66
2021/10/31 07:56:35;;;;;;;;;91.00;87.50;10.20;62.80;;;;;;5030555;28;8774;-65
2021/10/31 07:59:01;;;;;;;;;91.50;88.50;10.10;63.60;;;;;;5033822;28;8777;-67
2021/10/31 08:01:27;;;;;;;;;92.00;89.25;10.40;62.70;;;;;;5033938;28;9443;-66
2021/10/31 08:03:53;;;;;;;;;94.75;93.75;10.30;63.00;;;;;;5033915;28;8779;-67
2021/10/31 08:06:20;;;;;;;;;93.00;90.00;10.50;62.80;;;;;;5034361;28;8806;-68
2021/10/31 08:08:46;;;;;;;;;91.50;90.25;10.60;62.90;;;;;;5025894;28;8786;-68
2021/10/31 08:11:12;;;;;;;;;94.00;84.50;10.70;62.80;;;;;;5033940;28;8810;-65
2021/10/31 08:13:39;;;;;;;;;88.75;87.25;10.80;62.80;;;;;;5026779;28;8779;-67
2021/10/31 08:16:05;;;;;;;;;88.00;85.00;10.90;62.80;;;;;;5026412;28;8772;-67
2021/10/31 08:18:31;;;;;;;;;84.50;78.00;11.10;62.30;;;;;;5029469;28;8782;-66
2021/10/31 08:20:57;;;;;;;;;84.75;79.50;11.30;61.90;;;;;;5016002;28;8827;-66
2021/10/31 08:23:23;;;;;;;;;87.00;82.50;11.90;60.30;;;;;;5014754;28;9026;-67
2021/10/31 08:25:50;;;;;;;;;86.75;79.25;12.10;59.30;;;;;;5014000;28;8815;-69
2021/10/31 08:28:18;;;;;;;;;81.75;74.75;12.50;57.80;;;;;;5023573;28;8795;-66
2021/10/31 08:30:48;;;;;;;;;84.25;75.75;12.30;59.00;;;;;;5013215;28;8848;-64
2021/10/31 08:33:32;;;;;;;;;76.00;64.50;12.00;60.40;;;;;;5021749;28;8897;-66
2021/10/31 08:36:00;;;;;;;;;77.75;66.00;12.00;60.70;;;;;;4966343;28;8830;-66
2021/10/31 08:38:26;;;;;;;;;80.00;72.50;12.30;59.10;;;;;;5031278;28;8780;-64
2021/10/31 08:40:54;;;;;;;;;74.25;64.00;12.50;58.40;;;;;;5027665;28;8789;-62
2021/10/31 08:43:21;;;;;;;;;71.00;58.25;12.60;58.20;;;;;;5026679;28;8808;-59
2021/10/31 08:45:47;;;;;;;;;73.00;62.25;12.50;58.60;;;;;;5030286;28;8881;-60
2021/10/31 08:48:15;;;;;;;;;74.50;63.00;12.50;59.90;;;;;;5029633;28;9451;-57
2021/10/31 08:50:42;;;;;;;;;75.25;62.25;12.70;59.00;;;;;;5033281;28;8821;-64
2021/10/31 08:53:08;;;;;;;;;72.50;59.00;12.80;58.90;;;;;;5024481;28;8784;-53
2021/10/31 08:55:40;;;;;;;;;75.75;64.00;13.40;56.40;;;;;;5024928;28;8798;-57
2021/10/31 08:58:08;;;;;;;;;75.00;66.00;13.90;54.50;;;;;;5031423;28;8841;-56
2021/10/31 09:00:34;;;;;;;;;70.50;58.25;14.40;53.20;;;;;;5028199;28;8843;-49
2021/10/31 09:03:00;;;;;;;;;74.25;60.25;14.70;51.90;;;;;;5033600;28;8814;-62
2021/10/31 09:05:28;;;;;;;;;71.75;61.00;14.70;52.00;;;;;;5017086;28;8772;-59
2021/10/31 09:07:54;;;;;;;;;70.00;58.50;14.40;53.30;;;;;;5016817;28;8788;-62
2021/10/31 09:10:20;;;;;;;;;62.25;51.00;14.40;53.30;;;;;;5034600;28;8936;-62
2021/10/31 09:12:46;;;;;;;;;54.50;46.25;14.00;54.30;;;;;;5036435;28;8789;-60
2021/10/31 09:15:12;;;;;;;;;44.25;40.00;13.80;54.50;;;;;;5036440;28;8779;-62
2021/10/31 09:17:38;;;;;;;;;37.50;36.00;13.90;53.80;;;;;;5036723;28;8837;-59
2021/10/31 09:20:04;;;;;;;;;46.50;40.25;14.00;53.80;;;;;;5028590;28;8814;-60
2021/10/31 09:22:31;;;;;;;;;49.50;42.00;14.10;52.60;;;;;;5034136;28;8770;-63
2021/10/31 09:24:57;;;;;;;;;43.25;40.00;14.20;53.30;;;;;;5034223;28;10032;-60
2021/10/31 09:27:23;;;;;;;;;39.25;36.00;14.30;52.30;;;;;;5022791;28;8804;-60
2021/10/31 09:29:49;;;;;;;;;47.50;40.25;14.30;52.20;;;;;;5026028;28;8896;-60
2021/10/31 09:32:15;;;;;;;;;45.00;38.25;14.40;52.10;;;;;;5033541;28;8794;-60
2021/10/31 09:34:43;;;;;;;;;46.25;39.75;14.40;51.70;;;;;;5027085;28;8810;-61
2021/10/31 09:37:09;;;;;;;;;35.25;33.00;14.60;51.80;;;;;;5026774;28;8805;-61
2021/10/31 09:39:36;;;;;;;;;47.00;40.00;14.70;51.50;;;;;;5023521;28;8927;-61
2021/10/31 09:42:02;;;;;;;;;37.25;33.75;14.70;51.30;;;;;;5024763;28;8813;-61
2021/10/31 09:44:34;;;;;;;;;35.50;33.00;14.80;51.80;;;;;;5029775;28;8815;-61
2021/10/31 09:47:00;;;;;;;;;38.00;35.00;14.80;50.90;;;;;;5017649;28;8836;-60
2021/10/31 09:49:26;;;;;;;;;32.00;30.25;15.00;51.40;;;;;;5032544;28;9495;-61
2021/10/31 09:51:53;;;;;;;;;37.75;34.50;15.30;51.20;;;;;;5025386;28;8782;-61
2021/10/31 09:54:20;;;;;;;;;38.67;34.67;15.60;49.60;;;;;;5024307;28;8800;-60
2021/10/31 09:56:46;;;;;;;;;46.67;41.00;16.00;48.40;;;;;;5024663;28;8995;-60
2021/10/31 09:59:14;;;;;;;;;42.67;39.33;16.60;47.60;;;;;;5016066;28;8915;-62
2021/10/31 10:02:38;;;;;;;;;43.00;38.33;17.60;45.90;;;;;;5027115;28;8834;-62
2021/10/31 10:04:39;;;;;;;;;33.33;32.00;18.70;42.40;;;;;;5021911;28;8806;-63
2021/10/31 10:07:07;;;;;;;;;34.67;32.33;20.30;39.30;;;;;;5019605;28;8784;-62
2021/10/31 10:09:34;;;;;;;;;40.33;35.33;23.30;35.80;;;;;;5029506;28;8836;-62
2021/10/31 10:12:15;;;;;;;;;40.67;35.33;26.30;29.90;;;;;;5035591;28;8747;-63
2021/10/31 10:14:41;;;;;;;;;37.33;33.67;27.20;28.80;;;;;;5035429;28;8797;-64
2021/10/31 10:17:11;;;;;;;;;26.67;26.33;28.40;27.40;;;;;;5030329;28;8911;-61
2021/10/31 10:19:56;;;;;;;;;36.00;32.67;29.40;27.80;;;;;;5024040;28;11500;-65
2021/10/31 10:22:25;;;;;;;;;37.33;33.33;31.00;25.40;;;;;;5015430;28;8744;-63
2021/10/31 10:24:54;;;;;;;;;31.00;29.00;29.90;25.80;;;;;;5015510;28;8764;-62
2021/10/31 10:27:24;;;;;;;;;32.67;30.67;29.90;25.40;;;;;;5015436;28;8780;-62
2021/10/31 10:29:51;;;;;;;;;22.00;22.00;30.20;25.30;;;;;;5017356;28;8913;-59
2021/10/31 10:32:20;;;;;;;;;32.33;31.00;29.90;25.20;;;;;;5025697;28;11491;-60
2021/10/31 10:34:53;;;;;;;;;36.00;33.00;29.20;25.80;;;;;;5024091;28;8780;-60
2021/10/31 10:37:33;;;;;;;;;33.33;31.00;29.80;25.90;;;;;;5015258;28;8800;-65
2021/10/31 10:40:12;;;;;;;;;34.00;31.33;29.90;25.00;;;;;;5015232;28;8804;-64
2021/10/31 10:42:47;;;;;;;;;35.00;31.67;30.40;25.00;;;;;;5015268;28;8784;-62
2021/10/31 10:45:16;;;;;;;;;36.00;33.00;30.70;24.60;;;;;;5014971;28;8788;-61
2021/10/31 10:47:53;;;;;;;;;37.00;34.00;30.70;24.90;;;;;;5022378;28;8823;-65
2021/10/31 10:50:21;;;;;;;;;31.00;29.33;31.60;23.70;;;;;;5015948;28;8836;-58
2021/10/31 10:52:48;;;;;;;;;33.00;30.33;31.50;23.50;;;;;;5034548;28;8889;-59
2021/10/31 10:55:20;;;;;;;;;28.33;28.00;30.30;25.00;;;;;;5034335;28;8786;-56
2021/10/31 10:57:54;;;;;;;;;35.67;32.33;30.70;24.10;;;;;;5034474;28;11492;-61
2021/10/31 11:00:23;;;;;;;;;31.00;29.00;31.40;23.70;;;;;;5034654;28;8826;-60
2021/10/31 11:02:59;;;;;;;;;30.33;29.00;31.40;23.60;;;;;;5034529;28;8848;-59
2021/10/31 11:05:28;;;;;;;;;33.67;32.00;33.40;22.70;;;;;;5034649;28;8746;-63
2021/10/31 11:07:54;;;;;;;;;32.33;31.00;34.40;21.60;;;;;;5034705;28;8778;-61
2021/10/31 11:10:24;;;;;;;;;29.67;28.00;35.30;20.90;;;;;;5049854;28;9482;-59
2021/10/31 11:12:52;;;;;;;;;21.00;21.00;37.40;19.60;;;;;;5034565;28;8806;-58
2021/10/31 11:15:27;;;;;;;;;29.33;29.00;35.30;20.40;;;;;;5034243;28;8786;-59
2021/10/31 11:17:56;;;;;;;;;31.67;29.67;34.00;20.60;;;;;;5034352;28;11473;-61
2021/10/31 11:20:25;;;;;;;;;34.67;32.00;37.30;19.00;;;;;;5034276;28;8893;-61
2021/10/31 11:23:36;;;;;;;;;32.00;30.67;39.00;16.90;;;;;;5088479;27;13515;-63
2021/10/31 11:26:06;;;;;;;;;31.33;30.00;36.40;19.40;;;;;;5091810;28;8780;-60
2021/10/31 11:28:32;;;;;;;;;37.00;33.33;34.20;20.80;;;;;;5091616;28;8776;-59
2021/10/31 11:30:58;;;;;;;;;34.67;30.67;34.00;20.80;;;;;;5091755;28;8782;-59
2021/10/31 11:33:25;;;;;;;;;31.33;29.00;33.90;20.80;;;;;;5091822;28;8870;-60
2021/10/31 11:35:55;;;;;;;;;31.67;29.33;37.20;18.90;;;;;;5091586;28;8772;-59
2021/10/31 11:38:23;;;;;;;;;34.00;32.33;38.30;18.30;;;;;;5091679;28;8852;-61
2021/10/31 11:41:02;;;;;;;;;31.67;29.00;36.70;18.70;;;;;;5091570;28;8776;-60
2021/10/31 11:43:30;;;;;;;;;27.00;26.67;34.60;19.90;;;;;;5091368;28;8868;-65
2021/10/31 11:45:58;;;;;;;;;31.00;29.00;34.10;21.20;;;;;;5091323;28;8776;-58
2021/10/31 11:48:25;;;;;;;;;31.67;29.67;33.80;20.80;;;;;;5091705;28;8850;-62
2021/10/31 11:51:04;;;;;;;;;35.67;33.00;35.20;19.90;;;;;;5091433;28;8768;-60
2021/10/31 11:54:02;;;;;;;;;32.00;30.00;35.90;19.10;;;;;;5091463;28;8780;-60
2021/10/31 11:56:28;;;;;;;;;41.67;35.00;35.60;19.00;;;;;;5083478;28;8784;-61
2021/10/31 11:58:58;;;;;;;;;42.00;36.00;34.30;19.80;;;;;;5091134;28;8776;-63
2021/10/31 12:01:44;;;;;;;;;38.33;34.67;36.10;18.70;;;;;;5091050;28;8795;-62
2021/10/31 12:04:31;;;;;;;;;35.67;32.67;37.50;18.50;;;;;;5091181;28;8784;-62
2021/10/31 12:06:57;;;;;;;;;31.67;30.33;38.50;17.30;;;;;;5091250;28;8877;-62
2021/10/31 12:09:26;;;;;;;;;30.33;29.67;35.40;18.60;;;;;;5090869;28;8792;-62
2021/10/31 12:11:55;;;;;;;;;32.33;30.67;33.40;20.00;;;;;;5090968;28;9429;-62
2021/10/31 12:14:53;;;;;;;;;26.00;26.00;34.80;19.60;;;;;;5091297;28;8756;-64
2021/10/31 12:17:20;;;;;;;;;27.00;27.00;35.50;18.50;;;;;;5090904;28;8768;-63
2021/10/31 12:19:52;;;;;;;;;31.67;30.00;34.80;19.00;;;;;;5090842;28;8764;-62
2021/10/31 12:22:33;;;;;;;;;29.33;29.00;35.20;18.90;;;;;;5100396;28;8831;-62
2021/10/31 12:25:10;;;;;;;;;29.67;29.33;33.60;19.50;;;;;;5110943;28;8873;-62
2021/10/31 12:27:54;;;;;;;;;32.67;31.00;33.20;20.20;;;;;;5111232;28;8906;-62
2021/10/31 12:30:36;;;;;;;;;33.33;31.33;34.30;19.70;;;;;;5110871;28;8794;-61
2021/10/31 12:33:05;;;;;;;;;34.33;32.33;33.00;20.20;;;;;;5107563;28;9412;-61
2021/10/31 12:35:37;;;;;;;;;34.67;32.67;31.10;22.20;;;;;;5097569;28;9409;-63
2021/10/31 12:38:31;;;;;;;;;46.33;39.67;31.20;22.80;;;;;;5097286;28;8775;-61
2021/10/31 12:41:06;;;;;;;;;45.33;39.00;33.10;21.60;;;;;;5097595;28;8790;-64
2021/10/31 12:43:42;;;;;;;;;40.67;36.33;32.80;21.70;;;;;;5097179;28;8803;-63